sensor_id;sensor_type;location;lat;lon;timestamp;pressure;altitude;pressure_sealevel;temperature;humidity
5679;BME280;2862;52.560;13.566;2023-05-01T00:01:10;101314.50;;;7.31;67.48
5679;BME280;2862;52.560;13.566;2023-05-01T00:11:13;101312.03;;;6.98;69.66
5679;BME280;2862;52.560;13.566;2023-05-01T00:21:18;101298.41;;;6.88;70.09
5679;BME280;2862;52.560;13.566;2023-05-01T00:31:23;101297.50;;;6.89;70.74
5679;BME280;2862;52.560;13.566;2023-05-01T00:41:27;101298.50;;;6.72;71.94
5679;BME280;2862;52.560;13.566;2023-05-01T00:51:31;101288.59;;;6.74;72.17
5679;BME280;2862;52.560;13.566;2023-05-01T01:01:35;101282.81;;;6.68;72.29
5679;BME280;2862;52.560;13.566;2023-05-01T01:11:43;101278.22;;;6.85;71.81
5679;BME280;2862;52.560;13.566;2023-05-01T01:21:54;101265.09;;;7.12;70.97
5679;BME280;2862;52.560;13.566;2023-05-01T01:32:11;101266.00;;;6.97;71.54
5679;BME280;2862;52.560;13.566;2023-05-01T01:42:23;101256.03;;;7.01;71.04
5679;BME280;2862;52.560;13.566;2023-05-01T01:52:29;101242.81;;;6.99;71.27
5679;BME280;2862;52.560;13.566;2023-05-01T02:02:35;101242.22;;;6.80;71.42
5679;BME280;2862;52.560;13.566;2023-05-01T02:12:41;101230.47;;;6.84;71.71
5679;BME280;2862;52.560;13.566;2023-05-01T02:22:49;101231.81;;;6.61;73.15
5679;BME280;2862;52.560;13.566;2023-05-01T02:32:55;101224.28;;;6.53;73.63
5679;BME280;2862;52.560;13.566;2023-05-01T02:43:04;101204.72;;;6.24;74.86
5679;BME280;2862;52.560;13.566;2023-05-01T02:53:09;101215.63;;;6.20;75.17
5679;BME280;2862;52.560;13.566;2023-05-01T03:03:22;101189.94;;;6.04;75.90
5679;BME280;2862;52.560;13.566;2023-05-01T03:13:26;101180.69;;;6.11;75.33
5679;BME280;2862;52.560;13.566;2023-05-01T03:23:31;101165.19;;;5.72;77.02
5679;BME280;2862;52.560;13.566;2023-05-01T03:33:34;101160.81;;;5.71;76.48
5679;BME280;2862;52.560;13.566;2023-05-01T03:43:39;101164.00;;;5.94;75.76
5679;BME280;2862;52.560;13.566;2023-05-01T03:53:53;101157.41;;;7.75;68.14
5679;BME280;2862;52.560;13.566;2023-05-01T04:04:06;101139.44;;;10.89;54.86
5679;BME280;2862;52.560;13.566;2023-05-01T04:14:11;101133.91;;;13.28;46.93
5679;BME280;2862;52.560;13.566;2023-05-01T04:24:15;101130.84;;;14.80;42.42
5679;BME280;2862;52.560;13.566;2023-05-01T04:34:18;101111.91;;;16.89;37.03
5679;BME280;2862;52.560;13.566;2023-05-01T04:44:23;101113.75;;;18.31;33.42
5679;BME280;2862;52.560;13.566;2023-05-01T04:54:27;101102.59;;;18.26;32.68
5679;BME280;2862;52.560;13.566;2023-05-01T05:04:31;101109.00;;;18.34;33.09
5679;BME280;2862;52.560;13.566;2023-05-01T05:14:36;101098.19;;;20.00;30.58
5679;BME280;2862;52.560;13.566;2023-05-01T05:24:41;101083.31;;;21.24;28.52
5679;BME280;2862;52.560;13.566;2023-05-01T05:34:46;101069.88;;;23.15;25.18
5679;BME280;2862;52.560;13.566;2023-05-01T05:44:51;101059.47;;;23.87;24.02
5679;BME280;2862;52.560;13.566;2023-05-01T05:54:55;101054.28;;;24.78;23.59
5679;BME280;2862;52.560;13.566;2023-05-01T06:05:00;101048.50;;;26.34;21.00
5679;BME280;2862;52.560;13.566;2023-05-01T06:15:05;101053.41;;;27.18;19.26
5679;BME280;2862;52.560;13.566;2023-05-01T06:25:16;101039.84;;;28.25;18.58
5679;BME280;2862;52.560;13.566;2023-05-01T06:35:19;101041.56;;;27.66;18.36
5679;BME280;2862;52.560;13.566;2023-05-01T06:45:25;101033.44;;;26.68;19.48
5679;BME280;2862;52.560;13.566;2023-05-01T06:55:29;101027.56;;;26.83;20.19
5679;BME280;2862;52.560;13.566;2023-05-01T07:05:36;101026.13;;;29.36;17.91
5679;BME280;2862;52.560;13.566;2023-05-01T07:15:41;101026.22;;;26.48;19.56
5679;BME280;2862;52.560;13.566;2023-05-01T07:25:45;101020.66;;;26.30;20.22
5679;BME280;2862;52.560;13.566;2023-05-01T07:35:48;101010.50;;;24.71;21.33
5679;BME280;2862;52.560;13.566;2023-05-01T07:45:56;101010.03;;;22.72;23.79
5679;BME280;2862;52.560;13.566;2023-05-01T07:56:06;101005.97;;;20.82;26.32
5679;BME280;2862;52.560;13.566;2023-05-01T08:06:10;100984.88;;;19.48;28.49
5679;BME280;2862;52.560;13.566;2023-05-01T08:16:13;100982.53;;;19.14;29.54
5679;BME280;2862;52.560;13.566;2023-05-01T08:26:18;100981.63;;;19.30;29.04
5679;BME280;2862;52.560;13.566;2023-05-01T08:36:22;100981.84;;;19.51;29.63
5679;BME280;2862;52.560;13.566;2023-05-01T08:46:32;100972.53;;;17.79;30.55
5679;BME280;2862;52.560;13.566;2023-05-01T08:56:37;100956.59;;;18.89;29.99
5679;BME280;2862;52.560;13.566;2023-05-01T09:06:42;100943.75;;;18.82;29.46
5679;BME280;2862;52.560;13.566;2023-05-01T09:16:45;100925.44;;;18.29;29.13
5679;BME280;2862;52.560;13.566;2023-05-01T09:26:49;100909.84;;;18.47;29.18
5679;BME280;2862;52.560;13.566;2023-05-01T09:36:52;100886.56;;;18.22;29.51
5679;BME280;2862;52.560;13.566;2023-05-01T09:46:57;100874.91;;;18.13;30.54
5679;BME280;2862;52.560;13.566;2023-05-01T09:56:59;100860.47;;;18.76;29.39
5679;BME280;2862;52.560;13.566;2023-05-01T10:07:13;100856.13;;;18.98;30.29
5679;BME280;2862;52.560;13.566;2023-05-01T10:17:17;100838.81;;;18.99;29.08
5679;BME280;2862;52.560;13.566;2023-05-01T10:27:23;100827.69;;;18.94;30.94
5679;BME280;2862;52.560;13.566;2023-05-01T10:37:38;100831.38;;;18.31;30.75
5679;BME280;2862;52.560;13.566;2023-05-01T10:47:46;100816.94;;;17.99;31.51
5679;BME280;2862;52.560;13.566;2023-05-01T10:57:49;100790.28;;;17.80;31.84
5679;BME280;2862;52.560;13.566;2023-05-01T11:18:46;100761.56;;;18.18;32.26
5679;BME280;2862;52.560;13.566;2023-05-01T11:28:53;100732.47;;;17.81;32.86
5679;BME280;2862;52.560;13.566;2023-05-01T11:38:58;100724.66;;;17.86;33.05
5679;BME280;2862;52.560;13.566;2023-05-01T11:49:02;100706.94;;;18.69;30.73
5679;BME280;2862;52.560;13.566;2023-05-01T11:59:10;100687.41;;;18.81;30.22
5679;BME280;2862;52.560;13.566;2023-05-01T12:09:15;100685.06;;;19.16;28.91
5679;BME280;2862;52.560;13.566;2023-05-01T12:19:20;100669.78;;;19.15;29.91
5679;BME280;2862;52.560;13.566;2023-05-01T12:29:24;100657.72;;;19.03;29.89
5679;BME280;2862;52.560;13.566;2023-05-01T12:39:35;100644.47;;;18.47;30.03
5679;BME280;2862;52.560;13.566;2023-05-01T12:49:39;100635.25;;;18.56;30.84
5679;BME280;2862;52.560;13.566;2023-05-01T12:59:44;100607.63;;;19.14;30.34
5679;BME280;2862;52.560;13.566;2023-05-01T13:09:52;100612.41;;;19.41;29.49
5679;BME280;2862;52.560;13.566;2023-05-01T13:19:58;100597.91;;;19.49;29.66
5679;BME280;2862;52.560;13.566;2023-05-01T13:30:05;100581.09;;;19.68;30.39
5679;BME280;2862;52.560;13.566;2023-05-01T13:40:11;100578.31;;;19.83;30.07
5679;BME280;2862;52.560;13.566;2023-05-01T13:50:18;100567.28;;;19.84;29.92
5679;BME280;2862;52.560;13.566;2023-05-01T14:00:24;100558.97;;;20.07;30.92
5679;BME280;2862;52.560;13.566;2023-05-01T14:10:28;100543.03;;;19.83;30.49
5679;BME280;2862;52.560;13.566;2023-05-01T14:20:32;100522.97;;;20.20;29.68
5679;BME280;2862;52.560;13.566;2023-05-01T14:30:40;100512.03;;;20.13;29.79
5679;BME280;2862;52.560;13.566;2023-05-01T14:40:44;100524.94;;;19.69;29.03
5679;BME280;2862;52.560;13.566;2023-05-01T14:50:48;100497.38;;;19.50;29.64
5679;BME280;2862;52.560;13.566;2023-05-01T15:00:54;100495.41;;;19.59;29.51
5679;BME280;2862;52.560;13.566;2023-05-01T15:10:59;100488.22;;;19.51;29.40
5679;BME280;2862;52.560;13.566;2023-05-01T15:21:03;100488.91;;;19.75;29.73
5679;BME280;2862;52.560;13.566;2023-05-01T15:31:07;100487.50;;;19.79;29.77
5679;BME280;2862;52.560;13.566;2023-05-01T15:41:12;100488.13;;;19.59;31.53
5679;BME280;2862;52.560;13.566;2023-05-01T15:51:15;100468.34;;;19.66;30.94
5679;BME280;2862;52.560;13.566;2023-05-01T16:01:21;100471.34;;;19.71;31.76
5679;BME280;2862;52.560;13.566;2023-05-01T16:11:26;100461.56;;;19.76;30.33
5679;BME280;2862;52.560;13.566;2023-05-01T16:21:30;100456.66;;;19.65;29.91
5679;BME280;2862;52.560;13.566;2023-05-01T16:31:37;100457.16;;;19.54;31.02
5679;BME280;2862;52.560;13.566;2023-05-01T16:41:44;100452.56;;;19.54;32.04
5679;BME280;2862;52.560;13.566;2023-05-01T16:51:48;100457.78;;;19.34;32.31
5679;BME280;2862;52.560;13.566;2023-05-01T17:01:52;100458.28;;;19.08;32.71
5679;BME280;2862;52.560;13.566;2023-05-01T17:11:55;100455.16;;;19.05;32.85
5679;BME280;2862;52.560;13.566;2023-05-01T17:22:00;100450.88;;;18.81;33.20
5679;BME280;2862;52.560;13.566;2023-05-01T17:32:04;100453.06;;;18.63;34.13
5679;BME280;2862;52.560;13.566;2023-05-01T17:42:08;100458.03;;;18.44;34.31
5679;BME280;2862;52.560;13.566;2023-05-01T17:52:11;100458.63;;;18.17;35.00
5679;BME280;2862;52.560;13.566;2023-05-01T18:02:15;100445.72;;;17.89;35.64
5679;BME280;2862;52.560;13.566;2023-05-01T18:12:18;100436.44;;;17.84;35.19
5679;BME280;2862;52.560;13.566;2023-05-01T18:22:22;100440.94;;;17.68;36.78
5679;BME280;2862;52.560;13.566;2023-05-01T18:32:25;100437.31;;;17.53;37.04
5679;BME280;2862;52.560;13.566;2023-05-01T18:42:34;100439.41;;;17.43;37.75
5679;BME280;2862;52.560;13.566;2023-05-01T18:52:37;100442.06;;;17.28;39.16
5679;BME280;2862;52.560;13.566;2023-05-01T19:02:43;100446.72;;;17.11;40.05
5679;BME280;2862;52.560;13.566;2023-05-01T19:12:52;100457.38;;;17.05;39.21
5679;BME280;2862;52.560;13.566;2023-05-01T19:22:56;100451.28;;;17.03;39.52
5679;BME280;2862;52.560;13.566;2023-05-01T19:32:59;100435.84;;;16.88;40.37
5679;BME280;2862;52.560;13.566;2023-05-01T19:43:03;100447.16;;;16.84;40.76
5679;BME280;2862;52.560;13.566;2023-05-01T19:53:06;100448.56;;;16.71;42.45
5679;BME280;2862;52.560;13.566;2023-05-01T20:03:10;100437.97;;;16.54;46.13
5679;BME280;2862;52.560;13.566;2023-05-01T20:13:14;100439.69;;;16.38;47.16
5679;BME280;2862;52.560;13.566;2023-05-01T20:23:18;100435.19;;;16.14;47.29
5679;BME280;2862;52.560;13.566;2023-05-01T20:33:23;100429.97;;;15.97;48.32
5679;BME280;2862;52.560;13.566;2023-05-01T20:43:28;100430.66;;;15.90;49.10
5679;BME280;2862;52.560;13.566;2023-05-01T20:53:31;100436.06;;;15.74;50.04
5679;BME280;2862;52.560;13.566;2023-05-01T21:03:36;100444.94;;;15.58;52.69
5679;BME280;2862;52.560;13.566;2023-05-01T21:13:40;100443.59;;;15.54;50.23
5679;BME280;2862;52.560;13.566;2023-05-01T21:23:46;100444.47;;;15.63;47.80
5679;BME280;2862;52.560;13.566;2023-05-01T21:33:49;100443.13;;;15.75;45.84
5679;BME280;2862;52.560;13.566;2023-05-01T21:43:55;100449.03;;;15.79;46.38
5679;BME280;2862;52.560;13.566;2023-05-01T21:53:58;100453.59;;;15.78;45.52
5679;BME280;2862;52.560;13.566;2023-05-01T22:04:03;100457.09;;;15.71;46.15
5679;BME280;2862;52.560;13.566;2023-05-01T22:14:07;100461.31;;;15.65;46.58
5679;BME280;2862;52.560;13.566;2023-05-01T22:24:11;100457.09;;;15.62;47.30
5679;BME280;2862;52.560;13.566;2023-05-01T22:34:14;100461.94;;;15.51;49.22
5679;BME280;2862;52.560;13.566;2023-05-01T22:44:19;100456.22;;;15.54;49.69
5679;BME280;2862;52.560;13.566;2023-05-01T22:54:23;100457.88;;;15.38;52.26
5679;BME280;2862;52.560;13.566;2023-05-01T23:04:27;100458.69;;;15.31;54.19
5679;BME280;2862;52.560;13.566;2023-05-01T23:14:30;100469.63;;;15.29;52.97
5679;BME280;2862;52.560;13.566;2023-05-01T23:24:40;100466.63;;;15.32;54.17
5679;BME280;2862;52.560;13.566;2023-05-01T23:34:45;100461.75;;;15.36;50.02
5679;BME280;2862;52.560;13.566;2023-05-01T23:44:49;100462.09;;;15.33;49.05
5679;BME280;2862;52.560;13.566;2023-05-01T23:54:52;100460.53;;;15.22;48.64
